sensor_id;sensor_type;location;lat;lon;timestamp;P1;durP1;ratioP1;P2;durP2;ratioP2
15317;SDS011;7759;52.528;13.346;2023-09-18T00:01:39;6.43;;;5.13;;
15317;SDS011;7759;52.528;13.346;2023-09-18T00:04:05;6.05;;;5.25;;
15317;SDS011;7759;52.528;13.346;2023-09-18T00:06:32;8.32;;;5.63;;
15317;SDS011;7759;52.528;13.346;2023-09-18T00:08:58;6.75;;;5.35;;
15317;SDS011;7759;52.528;13.346;2023-09-18T00:11:24;6.32;;;5.63;;
15317;SDS011;7759;52.528;13.346;2023-09-18T00:13:50;7.72;;;5.63;;
15317;SDS011;7759;52.528;13.346;2023-09-18T00:16:16;7.70;;;5.40;;
15317;SDS011;7759;52.528;13.346;2023-09-18T00:18:42;6.93;;;5.03;;
15317;SDS011;7759;52.528;13.346;2023-09-18T00:21:09;6.88;;;5.32;;
15317;SDS011;7759;52.528;13.346;2023-09-18T00:23:36;5.70;;;5.10;;
15317;SDS011;7759;52.528;13.346;2023-09-18T00:26:02;7.72;;;5.25;;
15317;SDS011;7759;52.528;13.346;2023-09-18T00:28:27;7.47;;;5.45;;
15317;SDS011;7759;52.528;13.346;2023-09-18T00:30:53;5.20;;;4.68;;
15317;SDS011;7759;52.528;13.346;2023-09-18T00:33:19;7.65;;;5.65;;
15317;SDS011;7759;52.528;13.346;2023-09-18T00:35:46;6.50;;;5.25;;
15317;SDS011;7759;52.528;13.346;2023-09-18T00:38:12;6.60;;;4.82;;
15317;SDS011;7759;52.528;13.346;2023-09-18T00:40:38;7.30;;;5.45;;
15317;SDS011;7759;52.528;13.346;2023-09-18T00:43:04;5.88;;;5.30;;
15317;SDS011;7759;52.528;13.346;2023-09-18T00:45:29;7.13;;;5.00;;
15317;SDS011;7759;52.528;13.346;2023-09-18T00:47:55;5.57;;;4.82;;
15317;SDS011;7759;52.528;13.346;2023-09-18T00:50:21;7.43;;;5.43;;
15317;SDS011;7759;52.528;13.346;2023-09-18T00:52:48;6.18;;;5.35;;
15317;SDS011;7759;52.528;13.346;2023-09-18T00:55:15;6.60;;;5.07;;
15317;SDS011;7759;52.528;13.346;2023-09-18T00:57:41;6.15;;;4.57;;
15317;SDS011;7759;52.528;13.346;2023-09-18T01:00:08;5.57;;;5.05;;
15317;SDS011;7759;52.528;13.346;2023-09-18T01:02:34;5.50;;;4.97;;
15317;SDS011;7759;52.528;13.346;2023-09-18T01:05:00;5.07;;;4.55;;
15317;SDS011;7759;52.528;13.346;2023-09-18T01:07:26;5.60;;;4.93;;
15317;SDS011;7759;52.528;13.346;2023-09-18T01:09:53;6.50;;;4.57;;
15317;SDS011;7759;52.528;13.346;2023-09-18T01:12:23;7.32;;;4.80;;
15317;SDS011;7759;52.528;13.346;2023-09-18T01:15:02;6.45;;;5.07;;
15317;SDS011;7759;52.528;13.346;2023-09-18T01:17:35;6.55;;;4.70;;
15317;SDS011;7759;52.528;13.346;2023-09-18T01:20:03;6.38;;;5.20;;
15317;SDS011;7759;52.528;13.346;2023-09-18T01:22:30;7.18;;;4.65;;
15317;SDS011;7759;52.528;13.346;2023-09-18T01:24:57;5.30;;;4.07;;
15317;SDS011;7759;52.528;13.346;2023-09-18T01:27:23;6.38;;;5.22;;
15317;SDS011;7759;52.528;13.346;2023-09-18T01:29:49;5.25;;;4.30;;
15317;SDS011;7759;52.528;13.346;2023-09-18T01:32:15;5.20;;;4.65;;
15317;SDS011;7759;52.528;13.346;2023-09-18T01:34:48;6.10;;;4.63;;
15317;SDS011;7759;52.528;13.346;2023-09-18T01:37:15;5.90;;;4.88;;
15317;SDS011;7759;52.528;13.346;2023-09-18T01:39:42;6.50;;;5.07;;
15317;SDS011;7759;52.528;13.346;2023-09-18T01:42:08;5.50;;;4.85;;
15317;SDS011;7759;52.528;13.346;2023-09-18T01:44:35;5.10;;;4.60;;
15317;SDS011;7759;52.528;13.346;2023-09-18T01:47:03;6.38;;;4.38;;
15317;SDS011;7759;52.528;13.346;2023-09-18T01:49:33;5.32;;;4.82;;
15317;SDS011;7759;52.528;13.346;2023-09-18T01:51:59;5.25;;;4.57;;
15317;SDS011;7759;52.528;13.346;2023-09-18T01:54:25;4.88;;;4.35;;
15317;SDS011;7759;52.528;13.346;2023-09-18T01:56:52;5.30;;;4.80;;
15317;SDS011;7759;52.528;13.346;2023-09-18T01:59:19;6.53;;;5.15;;
15317;SDS011;7759;52.528;13.346;2023-09-18T02:01:45;6.45;;;5.15;;
15317;SDS011;7759;52.528;13.346;2023-09-18T02:04:11;5.22;;;4.70;;
15317;SDS011;7759;52.528;13.346;2023-09-18T02:06:37;5.55;;;4.82;;
15317;SDS011;7759;52.528;13.346;2023-09-18T02:09:03;5.90;;;4.55;;
15317;SDS011;7759;52.528;13.346;2023-09-18T02:11:29;8.75;;;5.00;;
15317;SDS011;7759;52.528;13.346;2023-09-18T02:13:55;6.20;;;4.97;;
15317;SDS011;7759;52.528;13.346;2023-09-18T02:16:21;4.93;;;4.13;;
15317;SDS011;7759;52.528;13.346;2023-09-18T02:18:47;5.07;;;4.57;;
15317;SDS011;7759;52.528;13.346;2023-09-18T02:21:19;5.38;;;4.78;;
15317;SDS011;7759;52.528;13.346;2023-09-18T02:23:48;5.28;;;4.53;;
15317;SDS011;7759;52.528;13.346;2023-09-18T02:26:15;6.85;;;4.93;;
15317;SDS011;7759;52.528;13.346;2023-09-18T02:28:40;6.57;;;4.93;;
15317;SDS011;7759;52.528;13.346;2023-09-18T02:31:06;4.95;;;4.45;;
15317;SDS011;7759;52.528;13.346;2023-09-18T02:33:33;4.70;;;4.18;;
15317;SDS011;7759;52.528;13.346;2023-09-18T02:35:59;5.85;;;4.97;;
15317;SDS011;7759;52.528;13.346;2023-09-18T02:38:26;6.05;;;4.63;;
15317;SDS011;7759;52.528;13.346;2023-09-18T02:40:51;6.18;;;4.57;;
15317;SDS011;7759;52.528;13.346;2023-09-18T02:43:20;4.68;;;4.22;;
15317;SDS011;7759;52.528;13.346;2023-09-18T02:45:46;4.95;;;4.40;;
15317;SDS011;7759;52.528;13.346;2023-09-18T02:48:12;4.78;;;4.13;;
15317;SDS011;7759;52.528;13.346;2023-09-18T02:50:38;5.30;;;4.57;;
15317;SDS011;7759;52.528;13.346;2023-09-18T02:53:05;6.63;;;4.68;;
15317;SDS011;7759;52.528;13.346;2023-09-18T02:55:31;6.30;;;4.75;;
15317;SDS011;7759;52.528;13.346;2023-09-18T02:57:57;5.47;;;4.70;;
15317;SDS011;7759;52.528;13.346;2023-09-18T03:00:24;5.95;;;4.70;;
15317;SDS011;7759;52.528;13.346;2023-09-18T03:02:50;6.03;;;4.65;;
15317;SDS011;7759;52.528;13.346;2023-09-18T03:05:15;4.93;;;4.32;;
15317;SDS011;7759;52.528;13.346;2023-09-18T03:07:41;5.55;;;4.65;;
15317;SDS011;7759;52.528;13.346;2023-09-18T03:10:09;5.70;;;4.55;;
15317;SDS011;7759;52.528;13.346;2023-09-18T03:12:38;5.05;;;4.55;;
15317;SDS011;7759;52.528;13.346;2023-09-18T03:15:04;7.07;;;5.10;;
15317;SDS011;7759;52.528;13.346;2023-09-18T03:17:31;5.82;;;4.70;;
15317;SDS011;7759;52.528;13.346;2023-09-18T03:19:57;5.38;;;4.43;;
15317;SDS011;7759;52.528;13.346;2023-09-18T03:22:23;5.00;;;4.50;;
15317;SDS011;7759;52.528;13.346;2023-09-18T03:24:49;6.10;;;4.90;;
15317;SDS011;7759;52.528;13.346;2023-09-18T03:27:15;7.90;;;4.95;;
15317;SDS011;7759;52.528;13.346;2023-09-18T03:29:41;5.05;;;4.38;;
15317;SDS011;7759;52.528;13.346;2023-09-18T03:32:06;5.15;;;4.28;;
15317;SDS011;7759;52.528;13.346;2023-09-18T03:34:36;5.93;;;4.45;;
15317;SDS011;7759;52.528;13.346;2023-09-18T03:37:02;4.65;;;4.03;;
15317;SDS011;7759;52.528;13.346;2023-09-18T03:39:28;7.13;;;5.25;;
15317;SDS011;7759;52.528;13.346;2023-09-18T03:41:54;6.25;;;4.78;;
15317;SDS011;7759;52.528;13.346;2023-09-18T03:44:20;5.93;;;4.80;;
15317;SDS011;7759;52.528;13.346;2023-09-18T03:46:46;5.32;;;4.30;;
15317;SDS011;7759;52.528;13.346;2023-09-18T03:49:12;5.43;;;4.85;;
15317;SDS011;7759;52.528;13.346;2023-09-18T03:51:38;8.05;;;4.97;;
15317;SDS011;7759;52.528;13.346;2023-09-18T03:54:04;7.75;;;4.97;;
15317;SDS011;7759;52.528;13.346;2023-09-18T03:56:30;6.43;;;4.68;;
15317;SDS011;7759;52.528;13.346;2023-09-18T03:58:56;5.13;;;4.60;;
15317;SDS011;7759;52.528;13.346;2023-09-18T04:01:23;6.55;;;4.43;;
15317;SDS011;7759;52.528;13.346;2023-09-18T04:03:49;6.10;;;4.65;;
15317;SDS011;7759;52.528;13.346;2023-09-18T04:06:15;6.35;;;4.97;;
15317;SDS011;7759;52.528;13.346;2023-09-18T04:08:44;6.68;;;4.80;;
15317;SDS011;7759;52.528;13.346;2023-09-18T04:11:10;5.90;;;4.40;;
15317;SDS011;7759;52.528;13.346;2023-09-18T04:13:36;5.82;;;5.00;;
15317;SDS011;7759;52.528;13.346;2023-09-18T04:16:03;5.82;;;4.60;;
15317;SDS011;7759;52.528;13.346;2023-09-18T04:18:29;5.00;;;4.50;;
15317;SDS011;7759;52.528;13.346;2023-09-18T04:20:54;5.15;;;4.25;;
15317;SDS011;7759;52.528;13.346;2023-09-18T04:23:21;5.55;;;4.72;;
15317;SDS011;7759;52.528;13.346;2023-09-18T04:25:48;6.00;;;4.75;;
15317;SDS011;7759;52.528;13.346;2023-09-18T04:30:40;5.55;;;4.65;;
15317;SDS011;7759;52.528;13.346;2023-09-18T04:33:06;8.60;;;5.18;;
15317;SDS011;7759;52.528;13.346;2023-09-18T04:35:32;6.50;;;4.60;;
15317;SDS011;7759;52.528;13.346;2023-09-18T04:37:58;7.28;;;4.70;;
15317;SDS011;7759;52.528;13.346;2023-09-18T04:40:24;5.07;;;4.40;;
15317;SDS011;7759;52.528;13.346;2023-09-18T04:42:57;5.72;;;4.93;;
15317;SDS011;7759;52.528;13.346;2023-09-18T04:45:23;9.98;;;5.18;;
15317;SDS011;7759;52.528;13.346;2023-09-18T04:47:49;5.30;;;4.45;;
15317;SDS011;7759;52.528;13.346;2023-09-18T04:50:15;6.18;;;4.53;;
15317;SDS011;7759;52.528;13.346;2023-09-18T04:52:41;6.15;;;5.07;;
15317;SDS011;7759;52.528;13.346;2023-09-18T04:55:07;5.85;;;5.25;;
15317;SDS011;7759;52.528;13.346;2023-09-18T04:57:33;7.35;;;5.00;;
15317;SDS011;7759;52.528;13.346;2023-09-18T04:59:59;6.60;;;5.05;;
15317;SDS011;7759;52.528;13.346;2023-09-18T05:02:25;5.55;;;5.00;;
15317;SDS011;7759;52.528;13.346;2023-09-18T05:04:51;5.50;;;4.57;;
15317;SDS011;7759;52.528;13.346;2023-09-18T05:07:18;6.45;;;4.95;;
15317;SDS011;7759;52.528;13.346;2023-09-18T05:09:43;6.78;;;5.20;;
15317;SDS011;7759;52.528;13.346;2023-09-18T05:12:11;5.65;;;4.88;;
15317;SDS011;7759;52.528;13.346;2023-09-18T05:14:41;7.40;;;5.07;;
15317;SDS011;7759;52.528;13.346;2023-09-18T05:17:13;7.03;;;4.70;;
15317;SDS011;7759;52.528;13.346;2023-09-18T05:19:39;8.73;;;6.93;;
15317;SDS011;7759;52.528;13.346;2023-09-18T05:22:05;5.53;;;4.93;;
15317;SDS011;7759;52.528;13.346;2023-09-18T05:24:31;8.45;;;4.55;;
15317;SDS011;7759;52.528;13.346;2023-09-18T05:26:57;6.03;;;4.60;;
15317;SDS011;7759;52.528;13.346;2023-09-18T05:29:24;6.07;;;4.80;;
15317;SDS011;7759;52.528;13.346;2023-09-18T05:31:49;8.65;;;4.72;;
15317;SDS011;7759;52.528;13.346;2023-09-18T05:34:15;5.03;;;4.15;;
15317;SDS011;7759;52.528;13.346;2023-09-18T05:36:41;5.60;;;4.80;;
15317;SDS011;7759;52.528;13.346;2023-09-18T05:39:07;7.75;;;5.15;;
15317;SDS011;7759;52.528;13.346;2023-09-18T05:41:36;7.03;;;5.30;;
15317;SDS011;7759;52.528;13.346;2023-09-18T05:44:02;8.10;;;5.22;;
15317;SDS011;7759;52.528;13.346;2023-09-18T05:46:30;8.07;;;4.78;;
15317;SDS011;7759;52.528;13.346;2023-09-18T05:48:56;5.78;;;5.07;;
15317;SDS011;7759;52.528;13.346;2023-09-18T05:51:23;6.70;;;5.03;;
15317;SDS011;7759;52.528;13.346;2023-09-18T05:53:49;6.53;;;5.07;;
15317;SDS011;7759;52.528;13.346;2023-09-18T05:56:15;6.03;;;5.40;;
15317;SDS011;7759;52.528;13.346;2023-09-18T05:58:42;10.38;;;5.00;;
15317;SDS011;7759;52.528;13.346;2023-09-18T06:01:08;11.75;;;5.38;;
15317;SDS011;7759;52.528;13.346;2023-09-18T06:03:34;7.13;;;5.40;;
15317;SDS011;7759;52.528;13.346;2023-09-18T06:06:03;5.90;;;4.88;;
15317;SDS011;7759;52.528;13.346;2023-09-18T06:08:29;8.05;;;4.82;;
15317;SDS011;7759;52.528;13.346;2023-09-18T06:10:56;8.30;;;4.82;;
15317;SDS011;7759;52.528;13.346;2023-09-18T06:13:23;7.45;;;4.80;;
15317;SDS011;7759;52.528;13.346;2023-09-18T06:15:50;6.60;;;4.55;;
15317;SDS011;7759;52.528;13.346;2023-09-18T06:18:17;7.03;;;5.07;;
15317;SDS011;7759;52.528;13.346;2023-09-18T06:20:45;6.18;;;5.00;;
15317;SDS011;7759;52.528;13.346;2023-09-18T06:23:11;7.32;;;4.40;;
15317;SDS011;7759;52.528;13.346;2023-09-18T06:25:37;6.28;;;4.72;;
15317;SDS011;7759;52.528;13.346;2023-09-18T06:28:03;6.18;;;4.57;;
15317;SDS011;7759;52.528;13.346;2023-09-18T06:30:29;11.88;;;5.03;;
15317;SDS011;7759;52.528;13.346;2023-09-18T06:32:56;6.00;;;4.50;;
15317;SDS011;7759;52.528;13.346;2023-09-18T06:35:22;5.57;;;4.80;;
15317;SDS011;7759;52.528;13.346;2023-09-18T06:37:47;5.68;;;4.57;;
15317;SDS011;7759;52.528;13.346;2023-09-18T06:40:13;7.00;;;5.20;;
15317;SDS011;7759;52.528;13.346;2023-09-18T06:42:39;5.07;;;4.43;;
15317;SDS011;7759;52.528;13.346;2023-09-18T06:45:06;8.10;;;5.03;;
15317;SDS011;7759;52.528;13.346;2023-09-18T06:47:32;5.32;;;4.50;;
15317;SDS011;7759;52.528;13.346;2023-09-18T06:49:58;5.13;;;4.47;;
15317;SDS011;7759;52.528;13.346;2023-09-18T06:52:29;7.85;;;5.07;;
15317;SDS011;7759;52.528;13.346;2023-09-18T06:54:55;8.88;;;5.25;;
15317;SDS011;7759;52.528;13.346;2023-09-18T06:57:22;7.50;;;4.65;;
15317;SDS011;7759;52.528;13.346;2023-09-18T06:59:48;5.07;;;4.22;;
15317;SDS011;7759;52.528;13.346;2023-09-18T07:02:14;7.65;;;5.07;;
15317;SDS011;7759;52.528;13.346;2023-09-18T07:04:41;11.93;;;4.45;;
15317;SDS011;7759;52.528;13.346;2023-09-18T07:07:13;7.15;;;4.88;;
15317;SDS011;7759;52.528;13.346;2023-09-18T07:09:40;5.82;;;4.45;;
15317;SDS011;7759;52.528;13.346;2023-09-18T07:12:07;6.32;;;4.10;;
15317;SDS011;7759;52.528;13.346;2023-09-18T07:14:34;8.15;;;4.45;;
15317;SDS011;7759;52.528;13.346;2023-09-18T07:17:00;6.25;;;4.72;;
15317;SDS011;7759;52.528;13.346;2023-09-18T07:19:27;5.88;;;4.60;;
15317;SDS011;7759;52.528;13.346;2023-09-18T07:21:52;5.63;;;4.20;;
15317;SDS011;7759;52.528;13.346;2023-09-18T07:24:18;7.38;;;4.60;;
15317;SDS011;7759;52.528;13.346;2023-09-18T07:26:45;6.18;;;4.10;;
15317;SDS011;7759;52.528;13.346;2023-09-18T07:29:12;6.03;;;4.57;;
15317;SDS011;7759;52.528;13.346;2023-09-18T07:31:38;5.05;;;4.20;;
15317;SDS011;7759;52.528;13.346;2023-09-18T07:34:05;7.28;;;4.15;;
15317;SDS011;7759;52.528;13.346;2023-09-18T07:36:31;5.03;;;4.10;;
15317;SDS011;7759;52.528;13.346;2023-09-18T07:38:57;5.18;;;3.97;;
15317;SDS011;7759;52.528;13.346;2023-09-18T07:41:23;8.48;;;4.13;;
15317;SDS011;7759;52.528;13.346;2023-09-18T07:43:50;4.20;;;3.75;;
15317;SDS011;7759;52.528;13.346;2023-09-18T07:46:15;5.30;;;3.88;;
15317;SDS011;7759;52.528;13.346;2023-09-18T07:48:41;8.48;;;5.43;;
15317;SDS011;7759;52.528;13.346;2023-09-18T07:51:16;5.55;;;3.95;;
15317;SDS011;7759;52.528;13.346;2023-09-18T07:53:42;10.50;;;4.13;;
15317;SDS011;7759;52.528;13.346;2023-09-18T07:56:09;5.47;;;4.30;;
15317;SDS011;7759;52.528;13.346;2023-09-18T07:58:35;6.95;;;4.20;;
15317;SDS011;7759;52.528;13.346;2023-09-18T08:01:03;3.85;;;3.45;;
15317;SDS011;7759;52.528;13.346;2023-09-18T08:03:30;6.63;;;4.57;;
15317;SDS011;7759;52.528;13.346;2023-09-18T08:05:56;5.93;;;4.20;;
15317;SDS011;7759;52.528;13.346;2023-09-18T08:08:22;7.20;;;4.03;;
15317;SDS011;7759;52.528;13.346;2023-09-18T08:10:51;4.72;;;4.18;;
15317;SDS011;7759;52.528;13.346;2023-09-18T08:13:17;4.93;;;3.08;;
15317;SDS011;7759;52.528;13.346;2023-09-18T08:15:44;4.18;;;3.72;;
15317;SDS011;7759;52.528;13.346;2023-09-18T08:18:10;5.18;;;3.95;;
15317;SDS011;7759;52.528;13.346;2023-09-18T08:20:39;4.35;;;3.95;;
15317;SDS011;7759;52.528;13.346;2023-09-18T08:23:05;6.88;;;3.65;;
15317;SDS011;7759;52.528;13.346;2023-09-18T08:25:31;6.00;;;4.68;;
15317;SDS011;7759;52.528;13.346;2023-09-18T08:27:57;4.45;;;3.35;;
15317;SDS011;7759;52.528;13.346;2023-09-18T08:30:23;4.18;;;3.65;;
15317;SDS011;7759;52.528;13.346;2023-09-18T08:32:49;4.38;;;3.78;;
15317;SDS011;7759;52.528;13.346;2023-09-18T08:35:15;8.07;;;4.75;;
15317;SDS011;7759;52.528;13.346;2023-09-18T08:37:41;5.60;;;4.05;;
15317;SDS011;7759;52.528;13.346;2023-09-18T08:40:11;5.00;;;3.55;;
15317;SDS011;7759;52.528;13.346;2023-09-18T08:42:39;3.90;;;3.35;;
15317;SDS011;7759;52.528;13.346;2023-09-18T08:45:08;6.10;;;4.10;;
15317;SDS011;7759;52.528;13.346;2023-09-18T08:47:35;7.05;;;3.63;;
15317;SDS011;7759;52.528;13.346;2023-09-18T08:50:03;5.57;;;3.67;;
15317;SDS011;7759;52.528;13.346;2023-09-18T08:52:29;6.97;;;4.00;;
15317;SDS011;7759;52.528;13.346;2023-09-18T08:54:55;5.15;;;3.72;;
15317;SDS011;7759;52.528;13.346;2023-09-18T08:57:22;4.25;;;3.80;;
15317;SDS011;7759;52.528;13.346;2023-09-18T08:59:48;4.35;;;3.80;;
15317;SDS011;7759;52.528;13.346;2023-09-18T09:02:15;4.03;;;3.35;;
15317;SDS011;7759;52.528;13.346;2023-09-18T09:04:41;6.63;;;3.85;;
15317;SDS011;7759;52.528;13.346;2023-09-18T09:07:07;4.18;;;3.78;;
15317;SDS011;7759;52.528;13.346;2023-09-18T09:09:33;3.55;;;3.25;;
15317;SDS011;7759;52.528;13.346;2023-09-18T09:11:59;3.88;;;3.40;;
15317;SDS011;7759;52.528;13.346;2023-09-18T09:14:25;6.55;;;3.85;;
15317;SDS011;7759;52.528;13.346;2023-09-18T09:16:55;5.10;;;4.10;;
15317;SDS011;7759;52.528;13.346;2023-09-18T09:19:29;4.07;;;3.42;;
15317;SDS011;7759;52.528;13.346;2023-09-18T09:21:55;3.88;;;3.47;;
15317;SDS011;7759;52.528;13.346;2023-09-18T09:24:37;4.75;;;3.40;;
15317;SDS011;7759;52.528;13.346;2023-09-18T09:27:03;4.22;;;3.75;;
15317;SDS011;7759;52.528;13.346;2023-09-18T09:29:29;6.88;;;4.00;;
15317;SDS011;7759;52.528;13.346;2023-09-18T09:31:56;4.45;;;3.67;;
15317;SDS011;7759;52.528;13.346;2023-09-18T09:34:25;3.60;;;3.13;;
15317;SDS011;7759;52.528;13.346;2023-09-18T09:36:55;3.45;;;3.15;;
15317;SDS011;7759;52.528;13.346;2023-09-18T09:39:21;3.42;;;3.13;;
15317;SDS011;7759;52.528;13.346;2023-09-18T09:41:50;3.65;;;3.20;;
15317;SDS011;7759;52.528;13.346;2023-09-18T09:44:16;4.22;;;3.83;;
15317;SDS011;7759;52.528;13.346;2023-09-18T09:46:45;4.55;;;3.90;;
15317;SDS011;7759;52.528;13.346;2023-09-18T09:49:13;3.70;;;3.40;;
15317;SDS011;7759;52.528;13.346;2023-09-18T09:51:41;4.18;;;3.63;;
15317;SDS011;7759;52.528;13.346;2023-09-18T09:54:08;3.60;;;3.30;;
15317;SDS011;7759;52.528;13.346;2023-09-18T09:56:39;6.53;;;3.20;;
15317;SDS011;7759;52.528;13.346;2023-09-18T09:59:05;3.45;;;3.15;;
15317;SDS011;7759;52.528;13.346;2023-09-18T10:01:33;4.00;;;3.25;;
15317;SDS011;7759;52.528;13.346;2023-09-18T10:03:59;3.90;;;3.47;;
15317;SDS011;7759;52.528;13.346;2023-09-18T10:06:30;4.45;;;3.17;;
15317;SDS011;7759;52.528;13.346;2023-09-18T10:08:56;5.47;;;3.80;;
15317;SDS011;7759;52.528;13.346;2023-09-18T10:11:22;5.25;;;3.25;;
15317;SDS011;7759;52.528;13.346;2023-09-18T10:13:59;9.98;;;3.33;;
15317;SDS011;7759;52.528;13.346;2023-09-18T10:16:26;6.57;;;2.85;;
15317;SDS011;7759;52.528;13.346;2023-09-18T10:19:11;5.07;;;3.63;;
15317;SDS011;7759;52.528;13.346;2023-09-18T10:22:06;7.95;;;3.63;;
15317;SDS011;7759;52.528;13.346;2023-09-18T10:24:37;3.05;;;2.75;;
15317;SDS011;7759;52.528;13.346;2023-09-18T10:27:03;4.55;;;3.25;;
15317;SDS011;7759;52.528;13.346;2023-09-18T10:29:33;3.63;;;3.28;;
15317;SDS011;7759;52.528;13.346;2023-09-18T10:32:05;3.95;;;3.10;;
15317;SDS011;7759;52.528;13.346;2023-09-18T10:34:34;3.45;;;3.15;;
15317;SDS011;7759;52.528;13.346;2023-09-18T10:37:03;4.70;;;3.22;;
15317;SDS011;7759;52.528;13.346;2023-09-18T10:39:34;3.40;;;3.10;;
15317;SDS011;7759;52.528;13.346;2023-09-18T10:42:01;3.67;;;3.10;;
15317;SDS011;7759;52.528;13.346;2023-09-18T10:44:28;3.60;;;3.17;;
15317;SDS011;7759;52.528;13.346;2023-09-18T10:46:56;3.75;;;3.33;;
15317;SDS011;7759;52.528;13.346;2023-09-18T10:49:22;3.20;;;2.90;;
15317;SDS011;7759;52.528;13.346;2023-09-18T10:51:49;4.65;;;2.97;;
15317;SDS011;7759;52.528;13.346;2023-09-18T10:54:23;6.78;;;3.35;;
15317;SDS011;7759;52.528;13.346;2023-09-18T10:56:49;4.95;;;3.45;;
15317;SDS011;7759;52.528;13.346;2023-09-18T10:59:15;5.78;;;3.40;;
15317;SDS011;7759;52.528;13.346;2023-09-18T11:01:44;5.50;;;3.30;;
15317;SDS011;7759;52.528;13.346;2023-09-18T11:04:11;5.93;;;4.07;;
15317;SDS011;7759;52.528;13.346;2023-09-18T11:09:21;4.38;;;3.80;;
15317;SDS011;7759;52.528;13.346;2023-09-18T11:15:09;4.07;;;3.30;;
15317;SDS011;7759;52.528;13.346;2023-09-18T11:20:02;5.57;;;3.53;;
15317;SDS011;7759;52.528;13.346;2023-09-18T11:22:31;4.88;;;3.22;;
15317;SDS011;7759;52.528;13.346;2023-09-18T11:27:54;5.65;;;3.40;;
15317;SDS011;7759;52.528;13.346;2023-09-18T11:30:22;4.65;;;3.88;;
15317;SDS011;7759;52.528;13.346;2023-09-18T11:32:49;4.03;;;3.35;;
15317;SDS011;7759;52.528;13.346;2023-09-18T11:35:15;7.43;;;4.05;;
15317;SDS011;7759;52.528;13.346;2023-09-18T11:37:43;3.72;;;3.30;;
15317;SDS011;7759;52.528;13.346;2023-09-18T11:45:41;4.05;;;3.65;;
15317;SDS011;7759;52.528;13.346;2023-09-18T11:48:07;3.55;;;3.03;;
15317;SDS011;7759;52.528;13.346;2023-09-18T11:50:36;4.50;;;3.72;;
15317;SDS011;7759;52.528;13.346;2023-09-18T11:53:04;4.07;;;3.35;;
15317;SDS011;7759;52.528;13.346;2023-09-18T11:55:31;3.95;;;3.38;;
15317;SDS011;7759;52.528;13.346;2023-09-18T11:57:57;6.00;;;3.30;;
15317;SDS011;7759;52.528;13.346;2023-09-18T12:00:26;6.45;;;3.50;;
15317;SDS011;7759;52.528;13.346;2023-09-18T12:02:54;4.05;;;3.55;;
15317;SDS011;7759;52.528;13.346;2023-09-18T12:05:20;6.25;;;3.20;;
15317;SDS011;7759;52.528;13.346;2023-09-18T12:07:52;4.18;;;3.13;;
15317;SDS011;7759;52.528;13.346;2023-09-18T12:10:18;4.05;;;3.38;;
15317;SDS011;7759;52.528;13.346;2023-09-18T12:12:48;5.00;;;3.42;;
15317;SDS011;7759;52.528;13.346;2023-09-18T12:15:15;6.47;;;3.40;;
15317;SDS011;7759;52.528;13.346;2023-09-18T12:17:42;4.65;;;3.70;;
15317;SDS011;7759;52.528;13.346;2023-09-18T12:20:15;4.22;;;3.83;;
15317;SDS011;7759;52.528;13.346;2023-09-18T12:22:46;4.15;;;3.67;;
15317;SDS011;7759;52.528;13.346;2023-09-18T12:25:12;5.50;;;3.72;;
15317;SDS011;7759;52.528;13.346;2023-09-18T12:27:44;4.80;;;3.60;;
15317;SDS011;7759;52.528;13.346;2023-09-18T12:30:11;6.47;;;3.63;;
15317;SDS011;7759;52.528;13.346;2023-09-18T12:32:39;4.72;;;3.15;;
15317;SDS011;7759;52.528;13.346;2023-09-18T12:35:06;4.65;;;3.67;;
15317;SDS011;7759;52.528;13.346;2023-09-18T12:37:32;4.13;;;3.38;;
15317;SDS011;7759;52.528;13.346;2023-09-18T12:39:58;5.53;;;3.28;;
15317;SDS011;7759;52.528;13.346;2023-09-18T12:42:24;5.00;;;3.30;;
15317;SDS011;7759;52.528;13.346;2023-09-18T12:44:51;5.82;;;3.45;;
15317;SDS011;7759;52.528;13.346;2023-09-18T12:47:17;6.72;;;3.03;;
15317;SDS011;7759;52.528;13.346;2023-09-18T12:49:43;6.10;;;3.20;;
15317;SDS011;7759;52.528;13.346;2023-09-18T12:52:09;5.75;;;4.60;;
15317;SDS011;7759;52.528;13.346;2023-09-18T12:54:39;4.60;;;3.42;;
15317;SDS011;7759;52.528;13.346;2023-09-18T12:57:05;5.45;;;3.35;;
15317;SDS011;7759;52.528;13.346;2023-09-18T12:59:32;3.78;;;2.97;;
15317;SDS011;7759;52.528;13.346;2023-09-18T13:01:58;3.85;;;3.38;;
15317;SDS011;7759;52.528;13.346;2023-09-18T13:04:24;3.22;;;2.92;;
15317;SDS011;7759;52.528;13.346;2023-09-18T13:07:02;3.50;;;3.13;;
15317;SDS011;7759;52.528;13.346;2023-09-18T13:09:28;5.07;;;3.30;;
15317;SDS011;7759;52.528;13.346;2023-09-18T13:11:55;3.17;;;2.88;;
15317;SDS011;7759;52.528;13.346;2023-09-18T13:14:21;5.53;;;3.38;;
15317;SDS011;7759;52.528;13.346;2023-09-18T13:16:48;3.40;;;2.90;;
15317;SDS011;7759;52.528;13.346;2023-09-18T13:19:13;3.25;;;2.92;;
15317;SDS011;7759;52.528;13.346;2023-09-18T13:21:45;3.40;;;2.70;;
15317;SDS011;7759;52.528;13.346;2023-09-18T13:24:23;4.47;;;3.08;;
15317;SDS011;7759;52.528;13.346;2023-09-18T13:26:49;4.45;;;3.40;;
15317;SDS011;7759;52.528;13.346;2023-09-18T13:29:15;5.82;;;2.97;;
15317;SDS011;7759;52.528;13.346;2023-09-18T13:31:41;3.53;;;2.90;;
15317;SDS011;7759;52.528;13.346;2023-09-18T13:34:07;4.07;;;3.00;;
15317;SDS011;7759;52.528;13.346;2023-09-18T13:36:33;3.47;;;2.78;;
15317;SDS011;7759;52.528;13.346;2023-09-18T13:38:59;4.53;;;3.25;;
15317;SDS011;7759;52.528;13.346;2023-09-18T13:41:25;7.57;;;3.08;;
15317;SDS011;7759;52.528;13.346;2023-09-18T13:43:51;5.70;;;3.10;;
15317;SDS011;7759;52.528;13.346;2023-09-18T13:46:20;4.38;;;3.50;;
15317;SDS011;7759;52.528;13.346;2023-09-18T13:48:46;6.20;;;3.70;;
15317;SDS011;7759;52.528;13.346;2023-09-18T13:51:12;4.75;;;3.80;;
15317;SDS011;7759;52.528;13.346;2023-09-18T13:53:38;5.68;;;3.20;;
15317;SDS011;7759;52.528;13.346;2023-09-18T13:56:06;3.75;;;2.83;;
15317;SDS011;7759;52.528;13.346;2023-09-18T13:58:32;4.90;;;4.38;;
15317;SDS011;7759;52.528;13.346;2023-09-18T14:00:58;4.25;;;3.45;;
15317;SDS011;7759;52.528;13.346;2023-09-18T14:03:24;7.70;;;3.25;;
15317;SDS011;7759;52.528;13.346;2023-09-18T14:05:50;5.20;;;2.80;;
15317;SDS011;7759;52.528;13.346;2023-09-18T14:08:16;4.88;;;3.42;;
15317;SDS011;7759;52.528;13.346;2023-09-18T14:10:42;5.30;;;3.50;;
15317;SDS011;7759;52.528;13.346;2023-09-18T14:13:08;7.63;;;2.97;;
15317;SDS011;7759;52.528;13.346;2023-09-18T14:15:34;7.43;;;3.75;;
15317;SDS011;7759;52.528;13.346;2023-09-18T14:18:00;4.80;;;2.95;;
15317;SDS011;7759;52.528;13.346;2023-09-18T14:20:26;3.67;;;3.13;;
15317;SDS011;7759;52.528;13.346;2023-09-18T14:22:52;7.55;;;3.63;;
15317;SDS011;7759;52.528;13.346;2023-09-18T14:25:18;7.70;;;3.10;;
15317;SDS011;7759;52.528;13.346;2023-09-18T14:27:45;4.45;;;3.15;;
15317;SDS011;7759;52.528;13.346;2023-09-18T14:30:12;4.07;;;2.80;;
15317;SDS011;7759;52.528;13.346;2023-09-18T14:32:38;3.45;;;2.95;;
15317;SDS011;7759;52.528;13.346;2023-09-18T14:35:05;6.50;;;2.38;;
15317;SDS011;7759;52.528;13.346;2023-09-18T14:37:32;3.83;;;2.75;;
15317;SDS011;7759;52.528;13.346;2023-09-18T14:39:58;9.07;;;3.03;;
15317;SDS011;7759;52.528;13.346;2023-09-18T14:42:25;3.80;;;2.47;;
15317;SDS011;7759;52.528;13.346;2023-09-18T14:44:50;4.10;;;2.85;;
15317;SDS011;7759;52.528;13.346;2023-09-18T14:47:16;8.77;;;2.70;;
15317;SDS011;7759;52.528;13.346;2023-09-18T14:49:42;4.53;;;2.50;;
15317;SDS011;7759;52.528;13.346;2023-09-18T14:52:11;5.53;;;2.97;;
15317;SDS011;7759;52.528;13.346;2023-09-18T14:54:37;5.05;;;2.40;;
15317;SDS011;7759;52.528;13.346;2023-09-18T14:57:05;3.70;;;2.10;;
15317;SDS011;7759;52.528;13.346;2023-09-18T14:59:31;2.50;;;2.22;;
15317;SDS011;7759;52.528;13.346;2023-09-18T15:01:57;3.38;;;2.60;;
15317;SDS011;7759;52.528;13.346;2023-09-18T15:04:23;5.18;;;3.15;;
15317;SDS011;7759;52.528;13.346;2023-09-18T15:06:49;3.95;;;2.67;;